Time;durP1;ratioP1;P1;durP2;ratioP2;P2;SDS_P1;SDS_P2;PMS_P1;PMS_P2;Temp;Humidity;BMP_temperature;BMP_pressure;BME280_temperature;BME280_humidity;BME280_pressure;Samples;Min_cycle;Max_cycle;Signal;HPM_P1;HPM_P2
2023/08/20 00:01:27;;;;;;;12.93;5.32;;;19.10;99.90;;;;;;5054658;28;20244;-55
2023/08/20 00:03:53;;;;;;;6.93;4.22;;;19.30;99.90;;;;;;5056395;28;20344;-55
2023/08/20 00:06:20;;;;;;;13.52;4.40;;;19.30;99.90;;;;;;5056506;28;20175;-56
2023/08/20 00:08:47;;;;;;;9.88;4.15;;;19.40;99.90;;;;;;5056330;28;20644;-55
2023/08/20 00:11:13;;;;;;;8.02;3.70;;;19.40;99.90;;;;;;5056248;28;20672;-56
2023/08/20 00:13:39;;;;;;;11.65;4.00;;;19.40;99.90;;;;;;5056449;28;20172;-55
2023/08/20 00:16:05;;;;;;;8.98;3.70;;;19.40;99.90;;;;;;5056461;28;20171;-55
2023/08/20 00:18:31;;;;;;;8.77;3.28;;;19.40;99.90;;;;;;5056026;28;20183;-53
2023/08/20 00:20:57;;;;;;;8.68;3.35;;;19.50;99.90;;;;;;5056394;28;20636;-55
2023/08/20 00:23:23;;;;;;;6.63;2.72;;;19.50;99.90;;;;;;5056045;28;20207;-55
2023/08/20 00:25:49;;;;;;;7.05;3.25;;;19.60;99.90;;;;;;5055943;28;20606;-55
2023/08/20 00:28:15;;;;;;;8.05;3.33;;;19.60;99.90;;;;;;5055898;28;20251;-56
2023/08/20 00:30:41;;;;;;;8.82;3.33;;;19.60;99.90;;;;;;5056418;28;20579;-56
2023/08/20 00:33:06;;;;;;;8.30;2.97;;;19.70;99.90;;;;;;5055793;28;20533;-55
2023/08/20 00:35:32;;;;;;;9.48;3.25;;;19.70;99.90;;;;;;5055814;28;20180;-56
2023/08/20 00:37:58;;;;;;;9.02;2.90;;;19.70;99.90;;;;;;5055922;28;20172;-56
2023/08/20 00:40:24;;;;;;;9.20;3.13;;;19.60;99.90;;;;;;5055745;28;20221;-56
2023/08/20 00:42:49;;;;;;;9.07;3.33;;;19.50;99.90;;;;;;5055942;28;20254;-54
2023/08/20 00:45:18;;;;;;;8.73;3.03;;;19.40;99.90;;;;;;5055518;28;20673;-55
2023/08/20 00:47:44;;;;;;;11.20;3.72;;;19.40;99.90;;;;;;5055757;28;20244;-55
2023/08/20 00:50:11;;;;;;;9.25;3.13;;;19.40;99.90;;;;;;5055650;28;20632;-54
2023/08/20 00:52:37;;;;;;;7.32;3.47;;;19.40;99.90;;;;;;5055544;28;20696;-56
2023/08/20 00:55:09;;;;;;;9.13;3.50;;;19.40;99.90;;;;;;5055376;28;20183;-56
2023/08/20 00:57:35;;;;;;;7.45;3.35;;;19.30;99.90;;;;;;5055706;28;20591;-55
2023/08/20 01:00:06;;;;;;;9.90;3.80;;;19.20;99.90;;;;;;5054373;28;20644;-53
2023/08/20 01:02:32;;;;;;;11.65;3.67;;;19.30;99.90;;;;;;5055519;28;20195;-55
2023/08/20 01:04:59;;;;;;;9.32;3.47;;;19.40;99.90;;;;;;5055212;28;20218;-56
2023/08/20 01:07:26;;;;;;;8.27;3.28;;;19.40;99.90;;;;;;5055338;28;20174;-54
2023/08/20 01:10:42;;;;;;;9.82;3.60;;;19.50;99.90;;;;;;5055377;28;20182;-55
2023/08/20 01:13:08;;;;;;;8.80;3.55;;;19.40;99.90;;;;;;5031926;28;20271;-56
2023/08/20 01:15:34;;;;;;;8.65;3.35;;;19.40;99.90;;;;;;5033027;28;20176;-54
2023/08/20 01:18:00;;;;;;;9.68;3.42;;;19.50;99.90;;;;;;5045020;28;20183;-54
2023/08/20 01:20:30;;;;;;;9.07;3.25;;;19.50;99.90;;;;;;5055248;28;20247;-56
2023/08/20 01:23:35;;;;;;;7.85;3.05;;;19.60;99.90;;;;;;5054300;28;20251;-55
2023/08/20 01:26:30;;;;;;;9.15;3.50;;;19.60;99.90;;;;;;5033064;28;20195;-55
2023/08/20 01:28:56;;;;;;;11.38;3.53;;;19.50;99.90;;;;;;5032975;28;20207;-55
2023/08/20 01:31:24;;;;;;;10.73;3.22;;;19.50;99.90;;;;;;5047387;28;20195;-55
2023/08/20 01:33:51;;;;;;;9.80;3.55;;;19.60;99.90;;;;;;5053546;28;20257;-55
2023/08/20 01:36:17;;;;;;;5.57;3.30;;;19.60;99.90;;;;;;5054730;28;20641;-56
2023/08/20 01:38:42;;;;;;;11.75;3.70;;;19.60;99.90;;;;;;5054700;28;20250;-56
2023/08/20 01:41:08;;;;;;;8.50;3.50;;;19.50;99.90;;;;;;5054795;28;20182;-54
2023/08/20 01:43:34;;;;;;;9.80;3.30;;;19.50;99.90;;;;;;5054448;28;20627;-56
2023/08/20 01:46:00;;;;;;;9.40;3.33;;;19.50;99.90;;;;;;5054762;28;20270;-55
2023/08/20 01:48:25;;;;;;;8.38;3.25;;;19.50;99.90;;;;;;5054378;28;20216;-54
2023/08/20 01:50:51;;;;;;;8.40;3.72;;;19.50;99.90;;;;;;5054465;28;20183;-56
2023/08/20 01:53:17;;;;;;;9.77;3.63;;;19.40;99.90;;;;;;5054341;28;20179;-56
2023/08/20 01:55:42;;;;;;;11.40;4.03;;;19.40;99.90;;;;;;5054866;28;20517;-56
2023/08/20 01:58:08;;;;;;;9.82;3.47;;;19.50;99.90;;;;;;5054495;28;20682;-55
2023/08/20 02:00:33;;;;;;;8.73;3.72;;;19.30;99.90;;;;;;5054421;28;20654;-55
2023/08/20 02:02:59;;;;;;;6.60;3.50;;;19.40;99.90;;;;;;5053113;28;20176;-55
2023/08/20 02:05:25;;;;;;;8.65;3.45;;;19.40;99.90;;;;;;5054136;28;20211;-55
2023/08/20 02:07:51;;;;;;;10.00;3.42;;;19.40;99.90;;;;;;5054073;28;20187;-55
2023/08/20 02:10:16;;;;;;;7.97;3.33;;;19.30;99.90;;;;;;5053941;28;20171;-54
2023/08/20 02:12:42;;;;;;;6.55;3.13;;;19.30;99.90;;;;;;5054262;28;20225;-55
2023/08/20 02:15:09;;;;;;;7.22;3.58;;;19.10;99.90;;;;;;5052919;28;20187;-55
2023/08/20 02:17:35;;;;;;;10.20;3.35;;;19.10;99.90;;;;;;5054213;28;20263;-54
2023/08/20 02:20:03;;;;;;;11.63;3.67;;;18.90;99.90;;;;;;5054026;28;20255;-55
2023/08/20 02:22:29;;;;;;;9.05;3.40;;;18.90;99.90;;;;;;5053699;28;20636;-56
2023/08/20 02:24:55;;;;;;;7.30;3.45;;;19.00;99.90;;;;;;5053185;28;20214;-55
2023/08/20 02:27:21;;;;;;;7.20;3.20;;;18.90;99.90;;;;;;5053878;28;20175;-56
2023/08/20 02:29:47;;;;;;;7.50;3.25;;;18.90;99.90;;;;;;5054107;28;20171;-55
2023/08/20 02:32:12;;;;;;;10.75;3.72;;;18.80;99.90;;;;;;5053699;28;20190;-55
2023/08/20 02:34:38;;;;;;;10.32;3.30;;;18.80;99.90;;;;;;5053616;28;20183;-55
2023/08/20 02:37:03;;;;;;;8.40;3.38;;;18.80;99.90;;;;;;5053475;28;20171;-55
2023/08/20 02:39:29;;;;;;;10.60;3.33;;;18.80;99.90;;;;;;5053751;28;20186;-54
2023/08/20 02:41:55;;;;;;;8.02;3.22;;;18.70;99.90;;;;;;5053623;28;20266;-54
2023/08/20 02:44:20;;;;;;;9.85;3.28;;;18.40;99.90;;;;;;5053535;28;20243;-55
2023/08/20 02:46:46;;;;;;;10.43;3.58;;;18.30;99.90;;;;;;5053374;28;20174;-55
2023/08/20 02:49:12;;;;;;;11.15;3.80;;;18.30;99.90;;;;;;5053522;28;20652;-55
2023/08/20 02:51:37;;;;;;;10.02;3.45;;;18.50;99.90;;;;;;5053315;28;20179;-55
2023/08/20 02:54:03;;;;;;;8.40;3.78;;;18.40;99.90;;;;;;5053198;28;20462;-56
2023/08/20 02:56:29;;;;;;;8.75;3.70;;;18.30;99.90;;;;;;5053612;28;20263;-56
2023/08/20 02:58:54;;;;;;;10.05;3.28;;;18.50;99.90;;;;;;5053400;28;20218;-56
2023/08/20 03:01:21;;;;;;;8.63;3.40;;;18.50;99.90;;;;;;5053321;28;20186;-55
2023/08/20 03:03:47;;;;;;;8.32;3.65;;;18.50;99.90;;;;;;5053187;28;20611;-53
2023/08/20 03:06:13;;;;;;;11.95;4.00;;;18.50;99.90;;;;;;5053174;28;20175;-56
2023/08/20 03:08:39;;;;;;;9.45;3.35;;;18.50;99.90;;;;;;5053027;28;20707;-55
2023/08/20 03:11:04;;;;;;;7.80;3.33;;;18.40;99.90;;;;;;5053245;28;20661;-55
2023/08/20 03:13:30;;;;;;;7.35;3.25;;;18.40;99.90;;;;;;5053287;28;20696;-55
2023/08/20 03:15:56;;;;;;;9.95;3.70;;;18.40;99.90;;;;;;5053220;28;20651;-56
2023/08/20 03:18:21;;;;;;;6.90;3.45;;;18.40;99.90;;;;;;5053094;28;20175;-55
2023/08/20 03:20:47;;;;;;;9.25;3.40;;;18.40;99.90;;;;;;5052924;28;20246;-55
2023/08/20 03:23:12;;;;;;;7.25;3.45;;;18.40;99.90;;;;;;5052882;28;20632;-55
2023/08/20 03:25:38;;;;;;;8.02;3.65;;;18.30;99.90;;;;;;5053154;28;20175;-56
2023/08/20 03:28:04;;;;;;;8.23;3.85;;;18.20;99.90;;;;;;5052937;28;20167;-56
2023/08/20 03:30:31;;;;;;;9.48;3.50;;;18.20;99.90;;;;;;5053112;28;20171;-55
2023/08/20 03:32:57;;;;;;;10.80;3.90;;;18.10;99.90;;;;;;5052975;28;20171;-55
2023/08/20 03:35:22;;;;;;;11.30;3.83;;;18.20;99.90;;;;;;5053238;28;20180;-53
2023/08/20 03:37:48;;;;;;;9.38;4.10;;;18.20;99.90;;;;;;5056841;28;20240;-55
2023/08/20 03:40:15;;;;;;;9.43;3.58;;;18.10;99.90;;;;;;5057092;28;20195;-56
2023/08/20 03:42:40;;;;;;;8.23;3.67;;;18.10;99.90;;;;;;5056942;28;20185;-55
2023/08/20 03:45:06;;;;;;;8.60;3.60;;;18.10;99.90;;;;;;5056924;28;20301;-54
2023/08/20 03:47:32;;;;;;;7.30;3.85;;;18.10;99.90;;;;;;5056850;28;20194;-55
2023/08/20 03:49:58;;;;;;;8.32;3.70;;;18.00;99.90;;;;;;5055769;28;20183;-55
2023/08/20 03:52:23;;;;;;;7.15;3.17;;;17.90;99.90;;;;;;5056580;28;20175;-55
2023/08/20 03:54:50;;;;;;;7.15;3.13;;;17.80;99.90;;;;;;5056868;28;20594;-56
2023/08/20 03:57:16;;;;;;;9.13;3.45;;;17.90;99.90;;;;;;5056663;28;20183;-55
2023/08/20 03:59:41;;;;;;;11.70;3.70;;;17.90;99.90;;;;;;5056648;28;20220;-55
2023/08/20 04:02:07;;;;;;;7.75;3.60;;;17.90;99.90;;;;;;5056560;28;20302;-55
2023/08/20 04:04:33;;;;;;;8.60;3.60;;;17.90;99.90;;;;;;5056371;28;20211;-55
2023/08/20 04:06:58;;;;;;;9.65;3.67;;;17.70;99.90;;;;;;5056373;28;20244;-52
2023/08/20 04:09:24;;;;;;;12.65;4.05;;;17.80;99.90;;;;;;5056341;28;20168;-54
2023/08/20 04:11:50;;;;;;;7.68;3.83;;;17.90;99.90;;;;;;5056482;28;20172;-55
2023/08/20 04:14:15;;;;;;;8.43;3.90;;;17.90;99.90;;;;;;5056137;28;20206;-54
2023/08/20 04:16:42;;;;;;;9.02;3.95;;;17.90;99.90;;;;;;5056277;28;20178;-55
2023/08/20 04:19:07;;;;;;;9.90;3.60;;;17.90;99.90;;;;;;5056214;28;20226;-55
2023/08/20 04:21:33;;;;;;;7.40;3.83;;;17.80;99.90;;;;;;5056095;28;20171;-56
2023/08/20 04:23:58;;;;;;;8.40;3.58;;;17.80;99.90;;;;;;5056003;28;20226;-54
2023/08/20 04:26:24;;;;;;;8.32;4.05;;;17.70;99.90;;;;;;5056186;28;20234;-54
2023/08/20 04:28:50;;;;;;;9.57;3.67;;;17.60;99.90;;;;;;5056060;28;20163;-54
2023/08/20 04:31:15;;;;;;;6.40;4.00;;;17.60;99.90;;;;;;5055954;28;20176;-56
2023/08/20 04:33:41;;;;;;;8.95;4.18;;;17.70;99.90;;;;;;5055823;28;20183;-54
2023/08/20 04:36:07;;;;;;;11.02;4.68;;;17.70;99.90;;;;;;5056058;28;20236;-54
2023/08/20 04:38:32;;;;;;;8.90;4.65;;;17.70;99.90;;;;;;5056040;28;20262;-54
2023/08/20 04:40:58;;;;;;;8.45;4.18;;;17.70;99.90;;;;;;5055919;28;20262;-55
2023/08/20 04:43:23;;;;;;;7.68;4.78;;;17.60;99.90;;;;;;5055634;28;20236;-55
2023/08/20 04:45:49;;;;;;;8.38;4.03;;;17.70;99.90;;;;;;5055752;28;20254;-56
2023/08/20 04:48:15;;;;;;;10.20;4.38;;;17.70;99.90;;;;;;5055300;28;20176;-55
2023/08/20 04:50:41;;;;;;;7.60;4.05;;;17.70;99.90;;;;;;5055455;28;20180;-53
2023/08/20 04:53:06;;;;;;;8.85;3.97;;;17.70;99.90;;;;;;5055724;28;20199;-55
2023/08/20 04:55:32;;;;;;;12.55;4.50;;;17.70;99.90;;;;;;5055700;28;20181;-55
2023/08/20 04:57:57;;;;;;;10.10;4.43;;;17.60;99.90;;;;;;5055590;28;20176;-54
2023/08/20 05:00:23;;;;;;;12.88;5.07;;;17.70;99.90;;;;;;5055351;28;20172;-55
2023/08/20 05:02:49;;;;;;;8.43;4.55;;;17.70;99.90;;;;;;5055333;28;20540;-55
2023/08/20 05:05:15;;;;;;;9.48;4.50;;;17.70;99.90;;;;;;5055154;28;20199;-54
2023/08/20 05:07:43;;;;;;;10.98;4.35;;;17.70;99.90;;;;;;5055403;28;20253;-55
2023/08/20 05:10:09;;;;;;;6.53;4.03;;;17.70;99.90;;;;;;5055375;28;20258;-54
2023/08/20 05:12:35;;;;;;;7.15;4.22;;;17.70;99.90;;;;;;5055294;28;20689;-55
2023/08/20 05:15:01;;;;;;;8.93;3.85;;;17.50;99.90;;;;;;5055155;28;20590;-55
2023/08/20 05:17:27;;;;;;;7.13;3.67;;;17.30;99.90;;;;;;5053899;28;20175;-55
2023/08/20 05:19:52;;;;;;;7.93;3.90;;;17.30;99.90;;;;;;5055043;28;20718;-54
2023/08/20 05:22:18;;;;;;;7.35;3.97;;;17.30;99.90;;;;;;5053937;28;20270;-55
2023/08/20 05:24:44;;;;;;;6.13;3.58;;;17.30;99.90;;;;;;5055054;28;20246;-55
2023/08/20 05:27:14;;;;;;;5.95;3.50;;;17.30;99.90;;;;;;5054891;28;20167;-55
2023/08/20 05:29:40;;;;;;;5.47;3.60;;;17.30;99.90;;;;;;5055021;28;20160;-55
2023/08/20 05:32:06;;;;;;;6.28;3.72;;;17.30;99.90;;;;;;5054812;28;20197;-54
2023/08/20 05:34:32;;;;;;;5.78;4.13;;;17.50;99.90;;;;;;5054724;28;20171;-54
2023/08/20 05:36:58;;;;;;;5.85;4.00;;;17.60;99.90;;;;;;5054699;28;20182;-54
2023/08/20 05:39:25;;;;;;;6.22;4.43;;;17.80;99.90;;;;;;5054896;28;20179;-55
2023/08/20 05:41:51;;;;;;;8.60;4.22;;;17.90;99.90;;;;;;5054676;28;20179;-56
2023/08/20 05:44:17;;;;;;;5.90;4.25;;;17.90;99.90;;;;;;5054742;28;20207;-54
2023/08/20 05:46:43;;;;;;;6.95;4.18;;;18.00;99.90;;;;;;5054505;28;20179;-55
2023/08/20 05:49:09;;;;;;;7.22;4.10;;;18.00;99.90;;;;;;5054413;28;20250;-55
2023/08/20 05:51:34;;;;;;;11.40;4.88;;;18.10;99.90;;;;;;5054442;28;20254;-54
2023/08/20 05:54:00;;;;;;;9.45;5.32;;;18.20;99.90;;;;;;5054559;28;20275;-53
2023/08/20 05:56:26;;;;;;;9.23;5.05;;;18.40;99.90;;;;;;5054454;28;20262;-55
2023/08/20 05:58:51;;;;;;;11.73;5.15;;;18.50;99.90;;;;;;5053594;28;20179;-54
2023/08/20 06:01:17;;;;;;;10.43;4.80;;;18.50;99.90;;;;;;5054349;28;20623;-55
2023/08/20 06:03:42;;;;;;;9.68;4.50;;;18.60;99.90;;;;;;5053966;28;20668;-54
2023/08/20 06:06:08;;;;;;;7.43;4.85;;;18.70;99.90;;;;;;5054352;28;20202;-54
2023/08/20 06:08:34;;;;;;;10.35;5.05;;;18.80;99.90;;;;;;5054257;28;20225;-54
2023/08/20 06:10:59;;;;;;;9.00;4.38;;;18.80;99.90;;;;;;5054079;28;20225;-54
2023/08/20 06:13:25;;;;;;;9.05;4.32;;;18.90;99.90;;;;;;5054021;28;20180;-54
2023/08/20 06:15:50;;;;;;;8.00;4.15;;;19.00;99.90;;;;;;5052546;28;20252;-55
2023/08/20 06:18:16;;;;;;;7.72;4.22;;;19.10;99.90;;;;;;5053912;28;20262;-53
2023/08/20 06:20:42;;;;;;;9.90;3.90;;;19.20;99.90;;;;;;5053612;28;20298;-55
2023/08/20 06:23:07;;;;;;;7.03;4.20;;;19.30;99.90;;;;;;5053657;28;20179;-51
2023/08/20 06:25:33;;;;;;;8.75;4.22;;;19.40;99.90;;;;;;5053227;28;20206;-53
2023/08/20 06:27:59;;;;;;;6.28;3.80;;;19.60;99.90;;;;;;5053303;28;20172;-54
2023/08/20 06:30:24;;;;;;;10.45;3.90;;;19.70;99.90;;;;;;5053238;28;20553;-53
2023/08/20 06:32:50;;;;;;;7.78;3.55;;;19.90;99.90;;;;;;5050761;28;20591;-54
2023/08/20 06:35:15;;;;;;;7.78;3.50;;;20.10;99.90;;;;;;5051261;28;20180;-55
2023/08/20 06:37:41;;;;;;;7.57;3.17;;;20.10;99.90;;;;;;5053070;28;20175;-55
2023/08/20 06:40:08;;;;;;;8.82;3.90;;;20.20;99.90;;;;;;5053016;28;20179;-54
2023/08/20 06:42:33;;;;;;;7.65;3.65;;;20.40;99.90;;;;;;5053176;28;20175;-54
2023/08/20 06:44:59;;;;;;;9.85;3.53;;;20.50;99.90;;;;;;5053292;28;20211;-54
2023/08/20 06:47:25;;;;;;;8.00;3.50;;;20.50;99.90;;;;;;5053143;28;20174;-54
2023/08/20 06:49:51;;;;;;;6.05;3.05;;;20.60;99.90;;;;;;5053055;28;20536;-54
2023/08/20 06:52:16;;;;;;;5.68;2.80;;;20.50;99.90;;;;;;5053200;28;20171;-51
2023/08/20 06:54:42;;;;;;;6.78;3.00;;;20.50;99.90;;;;;;5053110;28;20183;-52
2023/08/20 06:57:08;;;;;;;6.93;3.10;;;20.40;99.90;;;;;;5053150;28;20254;-54
2023/08/20 06:59:34;;;;;;;6.93;2.83;;;20.60;99.90;;;;;;5051928;28;20270;-55
2023/08/20 07:02:00;;;;;;;6.30;2.58;;;20.80;99.90;;;;;;5051664;28;20270;-55
2023/08/20 07:04:25;;;;;;;6.03;2.63;;;20.80;99.90;;;;;;5052745;28;20203;-55
2023/08/20 07:06:51;;;;;;;6.85;3.17;;;20.80;99.90;;;;;;5053185;28;20233;-54
2023/08/20 07:09:17;;;;;;;6.38;2.58;;;20.90;99.90;;;;;;5052677;28;20175;-54
2023/08/20 07:11:43;;;;;;;5.78;2.67;;;21.00;99.90;;;;;;5053010;28;20266;-52
2023/08/20 07:14:08;;;;;;;4.60;2.53;;;21.10;99.90;;;;;;5052823;28;20640;-54
2023/08/20 07:16:34;;;;;;;6.93;2.38;;;21.10;99.90;;;;;;5053182;28;20632;-54
2023/08/20 07:18:59;;;;;;;6.20;2.45;;;21.20;99.90;;;;;;5052559;28;20227;-52
2023/08/20 07:21:25;;;;;;;7.75;2.72;;;21.10;99.90;;;;;;5052329;28;20229;-55
2023/08/20 07:23:51;;;;;;;5.97;2.83;;;21.10;99.90;;;;;;5052802;28;20305;-53
2023/08/20 07:26:16;;;;;;;5.72;2.92;;;21.30;99.90;;;;;;5053295;28;20258;-53
2023/08/20 07:28:58;;;;;;;6.15;2.55;;;21.30;99.90;;;;;;5053002;28;20175;-54
2023/08/20 07:31:28;;;;;;;6.38;3.00;;;21.40;99.90;;;;;;5052967;28;20183;-54
2023/08/20 07:33:55;;;;;;;7.15;2.80;;;21.50;99.90;;;;;;5053047;28;20185;-55
2023/08/20 07:36:22;;;;;;;7.40;2.60;;;21.70;99.90;;;;;;5053002;28;20241;-56
2023/08/20 07:38:48;;;;;;;5.38;2.60;;;21.70;99.90;;;;;;5052960;28;20254;-55
2023/08/20 07:41:14;;;;;;;10.13;3.08;;;21.80;99.90;;;;;;5052897;28;20171;-54
2023/08/20 07:43:40;;;;;;;8.38;2.85;;;21.80;99.90;;;;;;5052740;28;20218;-54
2023/08/20 07:46:07;;;;;;;7.97;2.42;;;22.00;99.90;;;;;;5053115;28;20536;-52
2023/08/20 07:48:34;;;;;;;6.50;1.98;;;22.20;99.90;;;;;;5052887;28;20171;-53
2023/08/20 07:51:00;;;;;;;6.45;2.55;;;22.30;99.90;;;;;;5052851;28;20229;-54
2023/08/20 07:53:26;;;;;;;6.47;2.35;;;22.30;99.90;;;;;;5052807;28;20616;-54
2023/08/20 07:55:52;;;;;;;7.20;2.92;;;22.20;99.90;;;;;;5052591;28;20175;-54
2023/08/20 07:58:17;;;;;;;6.57;2.85;;;22.30;99.90;;;;;;5052692;28;20178;-55
2023/08/20 08:00:43;;;;;;;6.95;2.63;;;22.50;99.90;;;;;;5052859;28;20267;-55
2023/08/20 08:03:09;;;;;;;5.78;2.63;;;22.50;99.90;;;;;;5052803;28;20171;-55
2023/08/20 08:05:36;;;;;;;4.47;2.40;;;22.60;99.90;;;;;;5052718;28;20211;-55
2023/08/20 08:08:02;;;;;;;9.10;2.55;;;22.40;99.90;;;;;;5052662;28;20180;-56
2023/08/20 08:10:28;;;;;;;7.30;2.75;;;22.80;99.90;;;;;;5052646;28;20217;-56
2023/08/20 08:12:54;;;;;;;4.80;2.20;;;23.00;99.90;;;;;;5052786;28;20168;-56
2023/08/20 08:15:20;;;;;;;6.15;2.60;;;23.00;99.90;;;;;;5052776;28;20252;-55
2023/08/20 08:17:45;;;;;;;6.35;2.25;;;23.10;99.90;;;;;;5052716;28;20183;-56
2023/08/20 08:20:11;;;;;;;6.03;2.25;;;23.00;99.90;;;;;;5052342;28;20231;-56
2023/08/20 08:22:37;;;;;;;8.65;2.30;;;23.20;99.90;;;;;;5054693;28;20176;-55
2023/08/20 08:25:03;;;;;;;6.95;2.65;;;23.10;99.90;;;;;;5056014;28;20206;-56
2023/08/20 08:27:28;;;;;;;6.05;2.20;;;23.40;99.90;;;;;;5055173;28;20529;-56
2023/08/20 08:29:54;;;;;;;6.38;2.47;;;23.50;99.90;;;;;;5054692;28;20175;-54
2023/08/20 08:32:20;;;;;;;7.70;2.50;;;23.40;99.90;;;;;;5056125;28;20214;-56
2023/08/20 08:34:45;;;;;;;5.15;2.38;;;23.40;99.90;;;;;;5055968;28;20194;-54
2023/08/20 08:37:11;;;;;;;5.82;2.22;;;23.50;99.90;;;;;;5055138;28;20183;-56
2023/08/20 08:39:37;;;;;;;7.80;2.78;;;23.60;99.90;;;;;;5055772;28;20171;-55
2023/08/20 08:42:04;;;;;;;8.23;2.58;;;23.70;99.90;;;;;;5055656;28;20199;-56
2023/08/20 08:44:34;;;;;;;4.82;2.20;;;23.80;99.90;;;;;;5055759;28;20210;-56
2023/08/20 08:47:01;;;;;;;4.95;1.92;;;24.00;99.90;;;;;;5055618;28;20571;-55
2023/08/20 08:49:26;;;;;;;5.70;2.42;;;24.00;99.90;;;;;;5055606;28;20533;-57
2023/08/20 08:51:56;;;;;;;6.60;2.03;;;24.00;99.90;;;;;;5055597;28;20183;-57
2023/08/20 08:54:22;;;;;;;5.47;2.42;;;24.10;99.90;;;;;;5055591;28;20167;-55
2023/08/20 08:56:48;;;;;;;4.15;1.85;;;24.20;99.90;;;;;;5055442;28;20174;-56
2023/08/20 08:59:14;;;;;;;2.63;1.40;;;24.20;99.90;;;;;;5055561;28;20179;-56
2023/08/20 09:01:41;;;;;;;3.22;1.55;;;24.20;99.90;;;;;;5055905;28;20203;-57
2023/08/20 09:04:06;;;;;;;3.65;1.67;;;24.40;99.90;;;;;;5055307;28;20203;-56
2023/08/20 09:06:46;;;;;;;5.38;1.73;;;24.20;99.90;;;;;;5055605;28;20266;-57
2023/08/20 09:09:11;;;;;;;5.15;1.60;;;24.30;99.90;;;;;;5055126;28;20174;-55
2023/08/20 09:11:37;;;;;;;3.92;1.80;;;24.20;99.90;;;;;;5055213;28;20226;-55
2023/08/20 09:14:03;;;;;;;2.53;1.23;;;24.40;99.90;;;;;;5055347;28;20198;-57
2023/08/20 09:16:32;;;;;;;3.47;1.40;;;24.60;99.90;;;;;;5055281;28;20175;-56
2023/08/20 09:19:01;;;;;;;4.07;1.30;;;24.60;99.90;;;;;;5055232;28;20234;-56
2023/08/20 09:21:31;;;;;;;3.72;1.20;;;24.70;99.90;;;;;;5055033;28;20632;-57
2023/08/20 09:24:00;;;;;;;4.88;1.20;;;24.90;99.90;;;;;;5054796;28;20276;-57
2023/08/20 09:26:26;;;;;;;6.57;1.58;;;24.90;99.90;;;;;;5055183;28;20579;-57
2023/08/20 09:28:55;;;;;;;5.07;1.48;;;24.90;99.90;;;;;;5055133;28;20640;-56
2023/08/20 09:31:36;;;;;;;3.55;1.50;;;25.10;99.90;;;;;;5054967;28;20575;-56
2023/08/20 09:34:02;;;;;;;3.35;1.52;;;25.10;99.90;;;;;;5053646;28;20640;-57
2023/08/20 09:36:32;;;;;;;3.78;1.60;;;25.30;99.90;;;;;;5054728;28;20172;-57
2023/08/20 09:38:58;;;;;;;3.25;1.63;;;25.40;99.90;;;;;;5054905;28;20187;-57
2023/08/20 09:41:24;;;;;;;4.72;1.50;;;25.20;99.90;;;;;;5053705;28;20502;-57
2023/08/20 09:43:58;;;;;;;3.45;1.60;;;25.20;99.90;;;;;;5054694;28;20207;-57
2023/08/20 09:46:27;;;;;;;3.42;1.55;;;25.30;99.90;;;;;;5054631;28;20167;-56
2023/08/20 09:48:57;;;;;;;2.92;1.40;;;25.40;99.90;;;;;;5054385;28;20182;-57
2023/08/20 09:51:27;;;;;;;2.50;1.27;;;25.50;99.90;;;;;;5054404;28;20682;-58
2023/08/20 09:54:02;;;;;;;5.18;1.60;;;25.40;99.90;;;;;;5054639;28;20172;-55
2023/08/20 09:56:29;;;;;;;3.03;1.60;;;25.40;99.90;;;;;;5054359;28;20171;-55
2023/08/20 09:58:57;;;;;;;5.35;1.70;;;25.70;99.90;;;;;;5051848;28;20175;-56
2023/08/20 10:01:24;;;;;;;3.05;1.30;;;25.70;99.90;;;;;;5056698;28;20241;-56
2023/08/20 10:03:49;;;;;;;3.25;1.30;;;25.70;99.90;;;;;;5053309;28;20856;-55
2023/08/20 10:06:15;;;;;;;4.18;1.33;;;25.70;99.90;;;;;;5063089;28;20237;-56
2023/08/20 10:08:41;;;;;;;3.95;1.33;;;25.90;99.90;;;;;;5066830;28;20214;-56
2023/08/20 10:11:07;;;;;;;4.03;1.48;;;26.10;99.90;;;;;;5053499;28;20231;-56
2023/08/20 10:13:33;;;;;;;2.97;1.40;;;26.20;99.90;;;;;;5053733;28;20180;-56
2023/08/20 10:15:59;;;;;;;2.58;1.38;;;26.50;99.90;;;;;;5053677;28;20168;-56
2023/08/20 10:18:26;;;;;;;3.35;1.23;;;26.40;99.90;;;;;;5052836;28;20187;-56
2023/08/20 10:20:52;;;;;;;3.17;1.48;;;26.10;99.90;;;;;;5071765;28;20638;-56
2023/08/20 10:23:24;;;;;;;2.50;1.30;;;26.20;99.90;;;;;;5073595;28;20528;-57
2023/08/20 10:25:52;;;;;;;2.55;1.33;;;26.30;99.90;;;;;;5073627;28;20239;-56
2023/08/20 10:28:22;;;;;;;3.97;1.50;;;26.20;99.90;;;;;;5073439;28;20181;-56
2023/08/20 10:31:08;;;;;;;5.82;1.30;;;26.20;99.90;;;;;;5073404;28;20179;-55
2023/08/20 10:33:58;;;;;;;3.00;1.30;;;26.30;99.90;;;;;;5073989;28;20175;-56
2023/08/20 10:36:31;;;;;;;4.43;1.30;;;26.30;99.90;;;;;;5073339;28;20186;-56
2023/08/20 10:38:58;;;;;;;3.40;1.50;;;26.20;99.90;;;;;;5073567;28;20206;-56
2023/08/20 10:41:30;;;;;;;2.38;1.20;;;26.20;99.90;;;;;;5073731;28;20231;-56
2023/08/20 10:44:00;;;;;;;4.85;1.60;;;26.50;99.90;;;;;;5073428;28;20206;-56
2023/08/20 10:46:31;;;;;;;3.08;1.40;;;26.50;99.90;;;;;;5073498;28;20170;-56
2023/08/20 10:48:59;;;;;;;3.92;1.38;;;26.50;99.90;;;;;;5073638;28;20219;-56
2023/08/20 10:51:28;;;;;;;2.42;1.10;;;26.70;99.90;;;;;;5073427;28;20228;-56
2023/08/20 10:54:00;;;;;;;5.13;1.00;;;26.90;99.90;;;;;;5055570;28;20194;-56
2023/08/20 10:56:38;;;;;;;2.78;1.00;;;26.90;99.90;;;;;;5051773;28;20218;-55
2023/08/20 10:59:22;;;;;;;4.43;1.40;;;27.00;99.90;;;;;;5051301;28;20183;-57
2023/08/20 11:01:52;;;;;;;2.05;1.15;;;27.10;99.90;;;;;;5051218;28;20172;-57
2023/08/20 11:04:20;;;;;;;2.42;1.23;;;27.30;99.90;;;;;;5051095;28;20224;-56
2023/08/20 11:06:46;;;;;;;3.30;1.23;;;27.30;99.90;;;;;;5051634;28;20167;-56
2023/08/20 11:09:13;;;;;;;6.32;1.40;;;26.60;99.90;;;;;;5051711;28;20178;-56
2023/08/20 11:11:42;;;;;;;3.38;1.30;;;26.60;99.90;;;;;;5052817;28;20176;-56
2023/08/20 11:14:15;;;;;;;3.65;1.30;;;26.70;99.90;;;;;;5053233;28;20187;-56
2023/08/20 11:16:42;;;;;;;4.03;1.27;;;26.80;99.90;;;;;;5053277;28;20179;-56
2023/08/20 11:19:08;;;;;;;4.90;1.10;;;27.00;99.90;;;;;;5053302;28;20229;-56
2023/08/20 11:21:41;;;;;;;4.38;1.40;;;26.80;99.90;;;;;;5051964;28;20282;-56
2023/08/20 11:24:08;;;;;;;4.38;1.50;;;27.00;99.90;;;;;;5053011;28;20233;-56
2023/08/20 11:26:35;;;;;;;2.53;1.30;;;27.00;99.90;;;;;;5053053;28;20175;-56
2023/08/20 11:29:01;;;;;;;2.92;1.17;;;26.60;99.90;;;;;;5051169;28;20203;-50
2023/08/20 11:31:27;;;;;;;4.07;0.95;;;26.80;99.90;;;;;;5051367;28;20179;-53
2023/08/20 11:33:53;;;;;;;2.90;1.00;;;26.80;99.90;;;;;;5050891;28;20648;-51
2023/08/20 11:36:20;;;;;;;2.65;1.00;;;26.60;99.90;;;;;;5051818;28;20175;-53
2023/08/20 11:38:55;;;;;;;2.40;0.98;;;26.90;99.90;;;;;;5052103;28;20211;-52
2023/08/20 11:41:22;;;;;;;3.15;1.00;;;27.00;99.90;;;;;;5051604;28;20193;-55
2023/08/20 11:43:49;;;;;;;2.88;0.95;;;27.20;99.90;;;;;;5051475;28;20203;-53
2023/08/20 11:46:16;;;;;;;4.95;1.15;;;27.40;99.90;;;;;;5052311;28;20168;-54
2023/08/20 11:49:04;;;;;;;3.03;1.20;;;27.50;99.90;;;;;;5052930;28;20175;-54
2023/08/20 11:51:45;;;;;;;2.50;1.10;;;27.60;99.90;;;;;;5052924;28;20175;-49
2023/08/20 11:54:13;;;;;;;2.08;1.10;;;27.70;99.90;;;;;;5052731;28;20608;-54
2023/08/20 11:56:46;;;;;;;3.70;1.10;;;27.70;99.90;;;;;;5053887;28;20167;-51
2023/08/20 11:59:13;;;;;;;3.53;1.10;;;27.80;99.90;;;;;;5056809;28;20171;-50
2023/08/20 12:01:39;;;;;;;1.58;0.82;;;27.60;99.90;;;;;;5056749;28;20178;-51
2023/08/20 12:04:06;;;;;;;3.28;1.10;;;27.60;99.90;;;;;;5056357;28;20202;-52
2023/08/20 12:06:35;;;;;;;3.65;1.30;;;27.70;99.90;;;;;;5056170;28;20183;-53
2023/08/20 12:09:03;;;;;;;3.05;1.02;;;27.70;99.90;;;;;;5056467;28;20182;-52
2023/08/20 12:11:29;;;;;;;5.53;1.30;;;27.60;99.90;;;;;;5056452;28;20195;-52
2023/08/20 12:13:56;;;;;;;3.38;1.30;;;27.60;99.90;;;;;;5056394;28;20214;-50
2023/08/20 12:16:23;;;;;;;3.05;1.20;;;27.70;99.90;;;;;;5056360;28;20172;-54
2023/08/20 12:18:49;;;;;;;2.15;1.00;;;27.50;99.90;;;;;;5055999;28;20234;-50
2023/08/20 12:21:15;;;;;;;2.67;1.10;;;27.50;99.90;;;;;;5056214;28;20176;-54
2023/08/20 12:23:41;;;;;;;3.13;1.13;;;27.40;99.90;;;;;;5056292;28;20195;-51
2023/08/20 12:26:07;;;;;;;4.30;1.27;;;27.50;99.90;;;;;;5056259;28;20257;-53
2023/08/20 12:28:33;;;;;;;3.53;1.00;;;27.50;99.90;;;;;;5056149;28;20175;-50
2023/08/20 12:30:59;;;;;;;2.53;1.17;;;27.70;99.90;;;;;;5055948;28;20567;-53
2023/08/20 12:33:25;;;;;;;4.07;1.30;;;27.70;99.90;;;;;;5056154;28;20179;-52
2023/08/20 12:35:54;;;;;;;2.92;1.00;;;27.60;99.90;;;;;;5055819;28;20517;-50
2023/08/20 12:38:20;;;;;;;2.67;0.90;;;27.30;99.90;;;;;;5054789;28;20643;-55
2023/08/20 12:40:46;;;;;;;1.35;1.00;;;27.40;99.90;;;;;;5055978;28;20171;-51
2023/08/20 12:43:12;;;;;;;3.08;1.13;;;27.50;99.90;;;;;;5055697;28;20168;-54
2023/08/20 12:45:38;;;;;;;3.35;1.30;;;27.50;99.90;;;;;;5055782;28;20211;-50